Franklin, PA

9:11 PM EST on February 09, 2016 (GMT -0500)
Venango Regional

Weather History for KFKL - April, 2014

Change the Weather History Date:

Wednesday, April 2, 2014

  Actual Average Record
Temperature  
Mean Temperature 47 °F -  
Max Temperature 55 °F 55 °F 83 °F (1963)
Min Temperature 39 °F 32 °F 10 °F (1964)
Degree Days  
Heating Degree Days 18    
Moisture  
Dew Point 28 °F    
Average Humidity 50    
Maximum Humidity 65    
Minimum Humidity 35    
Precipitation  
Precipitation 0.00 in - - ()
Sea Level Pressure  
Sea Level Pressure 30.11 in    
Wind  
Wind Speed 8 mph (WNW)    
Max Wind Speed 16 mph    
Max Gust Speed 24 mph    
Visibility 10 miles    
Events      
Averages and records for this station are not official NWS values.
T = Trace of Precipitation, MM = Missing Value Source: NWS Daily Summary

Daily Weather History Graph

Daily Weather History Graph

Search for Another Location

Airport or City:

Trip Planner

Search our weather history database for the weather conditions in past years. The results will help you decide how hot, cold, wet, or windy it might be!

Date:

Astronomy

Apr. 02, 2014 Rise Set
Actual Time 7:00 AM EDT 7:45 PM EDT
Civil Twilight 6:32 AM EDT 8:13 PM EDT
Nautical Twilight 5:59 AM EDT 8:46 PM EDT
Astronomical Twilight 5:25 AM EDT 9:21 PM EDT
Moon 8:42 AM EDT (4/2) 11:09 PM EDT (4/2)
Length of Visible Light 13h 40m
Length of Day
12h 44m
Waxing Crescent, 10% of the Moon is Illuminated
Apr 2
Waxing Crescent
Apr 7
First Quarter
Apr 15
Full
Apr 22
Last Quarter
Apr 29
New

Hourly Weather History & Observations

Time (EDT) Temp. Windchill Dew Point Humidity Pressure Visibility Wind Dir Wind Speed Gust Speed Precip Events Conditions
12:15 AM 44.6 °F 40.2 °F 30.2 °F 57% 30.02 in 10.0 mi West 8.1 mph - N/A   Clear
12:35 AM 44.6 °F 39.7 °F 30.2 °F 57% 30.03 in 10.0 mi West 9.2 mph 17.3 mph N/A   Clear
12:55 AM 44.6 °F 39.7 °F 30.2 °F 57% 30.03 in 10.0 mi West 9.2 mph - N/A   Clear
1:15 AM 44.6 °F 39.2 °F 30.2 °F 57% 30.04 in 10.0 mi West 10.4 mph - N/A   Partly Cloudy
1:35 AM 44.6 °F 37.4 °F 30.2 °F 57% 30.05 in 10.0 mi WNW 16.1 mph 19.6 mph N/A   Scattered Clouds
1:55 AM 44.6 °F 37.8 °F 30.2 °F 57% 30.06 in 10.0 mi West 15.0 mph 24.2 mph N/A   Mostly Cloudy
2:15 AM 44.6 °F 38.4 °F 30.2 °F 57% 30.06 in 10.0 mi West 12.7 mph 19.6 mph N/A   Partly Cloudy
2:35 AM 44.6 °F 39.2 °F 28.4 °F 53% 30.07 in 10.0 mi WNW 10.4 mph 20.7 mph N/A   Partly Cloudy
2:55 AM 44.6 °F 39.7 °F 28.4 °F 53% 30.07 in 10.0 mi West 9.2 mph - N/A   Mostly Cloudy
3:15 AM 44.6 °F 40.7 °F 28.4 °F 53% 30.05 in 10.0 mi NW 6.9 mph - N/A   Mostly Cloudy
3:35 AM 44.6 °F 38.8 °F 28.4 °F 53% 30.06 in 10.0 mi West 11.5 mph - N/A   Overcast
3:55 AM 42.8 °F 38.0 °F 28.4 °F 57% 30.05 in 10.0 mi WNW 8.1 mph - N/A   Mostly Cloudy
4:15 AM 42.8 °F 39.3 °F 28.4 °F 57% 30.05 in 10.0 mi NW 5.8 mph - N/A   Clear
4:35 AM 41.0 °F 36.4 °F 28.4 °F 61% 30.05 in 10.0 mi NW 6.9 mph - N/A   Clear
4:55 AM 39.2 °F 34.2 °F 28.4 °F 65% 30.05 in 10.0 mi NW 6.9 mph - N/A   Clear
5:15 AM 39.2 °F 35.0 °F 28.4 °F 65% 30.05 in 10.0 mi NW 5.8 mph - N/A   Clear
5:35 AM 39.2 °F - 28.4 °F 65% 30.06 in 10.0 mi Calm Calm - N/A   Mostly Cloudy
5:55 AM 39.2 °F - 28.4 °F 65% 30.08 in 10.0 mi Calm Calm - N/A   Overcast
6:15 AM 39.2 °F - 28.4 °F 65% 30.09 in 10.0 mi Calm Calm - N/A   Overcast
6:35 AM 39.2 °F 35.9 °F 28.4 °F 65% 30.10 in 10.0 mi South 4.6 mph - N/A   Overcast
6:55 AM 39.2 °F 33.6 °F 26.6 °F 61% 30.11 in 10.0 mi WSW 8.1 mph - N/A   Overcast
7:15 AM 39.2 °F 35.9 °F 26.6 °F 61% 30.11 in 10.0 mi West 4.6 mph - N/A   Mostly Cloudy
8:55 AM 39.2 °F 33.0 °F 26.6 °F 61% 30.13 in 10.0 mi West 9.2 mph - N/A   Clear
9:15 AM 42.8 °F 37.0 °F 26.6 °F 53% 30.13 in 10.0 mi West 10.4 mph - N/A   Clear
9:35 AM 42.8 °F 37.0 °F 26.6 °F 53% 30.14 in 10.0 mi West 10.4 mph - N/A   Clear
9:55 AM 44.6 °F 39.7 °F 28.4 °F 53% 30.14 in 10.0 mi West 9.2 mph - N/A   Clear
10:15 AM 46.4 °F 42.4 °F 26.6 °F 46% 30.15 in 10.0 mi WSW 8.1 mph - N/A   Clear
10:35 AM 44.6 °F 41.4 °F 26.6 °F 49% 30.14 in 10.0 mi West 5.8 mph - N/A   Clear
10:55 AM 46.4 °F 42.4 °F 28.4 °F 50% 30.14 in 10.0 mi West 8.1 mph - N/A   Clear
11:15 AM 46.4 °F 41.5 °F 28.4 °F 50% 30.15 in 10.0 mi West 10.4 mph - N/A   Clear
11:35 AM 48.2 °F - 28.4 °F 46% 30.15 in 10.0 mi WSW 8.1 mph - N/A   Clear
11:55 AM 50.0 °F - 28.4 °F 43% 30.14 in 10.0 mi WNW 9.2 mph - N/A   Clear
12:15 PM 50.0 °F - 28.4 °F 43% 30.14 in 10.0 mi West 11.5 mph - N/A   Clear
12:35 PM 50.0 °F - 28.4 °F 43% 30.14 in 10.0 mi West 8.1 mph - N/A   Clear
12:55 PM 50.0 °F - 28.4 °F 43% 30.14 in 10.0 mi West 8.1 mph - N/A   Clear
1:15 PM 51.8 °F - 30.2 °F 44% 30.14 in 10.0 mi WSW 6.9 mph - N/A   Clear
1:55 PM 53.6 °F - 30.2 °F 41% 30.13 in 10.0 mi NNW 5.8 mph 16.1 mph N/A   Clear
2:15 PM 53.6 °F - 30.2 °F 41% 30.13 in 10.0 mi SW 6.9 mph - N/A   Clear
2:35 PM 53.6 °F - 28.4 °F 38% 30.13 in 10.0 mi WNW 8.1 mph - N/A   Clear
2:55 PM 53.6 °F - 28.4 °F 38% 30.13 in 10.0 mi NW 5.8 mph - N/A   Clear
3:15 PM 55.4 °F - 28.4 °F 36% 30.12 in 10.0 mi West 10.4 mph - N/A   Clear
3:35 PM 55.4 °F - 28.4 °F 36% 30.12 in 10.0 mi West 3.5 mph - N/A   Clear
3:55 PM 55.4 °F - 28.4 °F 36% 30.12 in 10.0 mi NW 4.6 mph - N/A   Clear
4:15 PM 55.4 °F - 28.4 °F 36% 30.12 in 10.0 mi West 6.9 mph - N/A   Clear
4:35 PM 55.4 °F - 28.4 °F 36% 30.12 in 10.0 mi NW 3.5 mph - N/A   Clear
4:55 PM 55.4 °F - 28.4 °F 36% 30.12 in 10.0 mi NW 4.6 mph - N/A   Clear
5:15 PM 53.6 °F - 26.6 °F 35% 30.12 in 10.0 mi NW 5.8 mph - N/A   Clear
5:35 PM 53.6 °F - 26.6 °F 35% 30.13 in 10.0 mi West 6.9 mph - N/A   Clear
5:55 PM 53.6 °F - 28.4 °F 38% 30.12 in 10.0 mi NW 5.8 mph - N/A   Clear
6:15 PM 51.8 °F - 26.6 °F 38% 30.13 in 10.0 mi NNW 6.9 mph - N/A   Clear
6:35 PM 51.8 °F - 26.6 °F 38% 30.12 in 10.0 mi NNW 3.5 mph - N/A   Clear
6:55 PM 51.8 °F - 26.6 °F 38% 30.12 in 10.0 mi North 3.5 mph - N/A   Clear
7:15 PM 50.0 °F - 26.6 °F 40% 30.12 in 10.0 mi North 6.9 mph - N/A   Clear
7:35 PM 48.2 °F - 28.4 °F 46% 30.12 in 10.0 mi NNW 5.8 mph - N/A   Clear
7:55 PM 46.4 °F 45.2 °F 28.4 °F 50% 30.12 in 10.0 mi NNW 3.5 mph - N/A   Clear
8:15 PM 44.6 °F 43.1 °F 26.6 °F 49% 30.13 in 10.0 mi North 3.5 mph - N/A   Clear
8:35 PM 44.6 °F 43.1 °F 26.6 °F 49% 30.14 in 10.0 mi North 3.5 mph - N/A   Clear
8:55 PM 42.8 °F 40.1 °F 26.6 °F 53% 30.15 in 10.0 mi North 4.6 mph - N/A   Clear
9:15 PM 42.8 °F 40.1 °F 26.6 °F 53% 30.15 in 10.0 mi North 4.6 mph - N/A   Clear
9:35 PM 42.8 °F 40.1 °F 26.6 °F 53% 30.15 in 10.0 mi North 4.6 mph - N/A   Clear
9:55 PM 42.8 °F 40.1 °F 24.8 °F 49% 30.15 in 10.0 mi North 4.6 mph - N/A   Mostly Cloudy
10:15 PM 41.0 °F 35.8 °F 24.8 °F 53% 30.15 in 10.0 mi North 8.1 mph - N/A   Overcast
10:35 PM 41.0 °F 35.8 °F 26.6 °F 57% 30.15 in 10.0 mi North 8.1 mph - N/A   Overcast
10:55 PM 41.0 °F 36.4 °F 26.6 °F 57% 30.16 in 10.0 mi North 6.9 mph - N/A   Overcast
11:15 PM 39.2 °F 33.6 °F 26.6 °F 61% 30.15 in 10.0 mi NNE 8.1 mph - N/A   Overcast
11:35 PM 39.2 °F 35.9 °F 26.6 °F 61% 30.16 in 10.0 mi NNE 4.6 mph - N/A   Overcast